Time;durP1;ratioP1;P1;durP2;ratioP2;P2;SDS_P1;SDS_P2;PMS_P1;PMS_P2;Temp;Humidity;BMP_temperature;BMP_pressure;BME280_temperature;BME280_humidity;BME280_pressure;Samples;Min_cycle;Max_cycle;Signal;HPM_P1;HPM_P2
2022/07/03 00:01:19;;;;;;;2.03;1.42;;;;;;;;;;5033121;28;20086;-60
2022/07/03 00:04:00;;;;;;;3.72;2.25;;;;;;;;;;5033849;28;20104;-60
2022/07/03 00:06:39;;;;;;;3.88;2.53;;;;;;;;;;5034245;28;20026;-60
2022/07/03 00:12:17;;;;;;;2.65;1.58;;;;;;;;;;5033014;28;20030;-60
2022/07/03 00:18:17;;;;;;;3.45;1.83;;;;;;;;;;5027746;28;20026;-59
2022/07/03 00:20:50;;;;;;;3.95;2.13;;;;;;;;;;5032004;28;20069;-60
2022/07/03 00:23:46;;;;;;;3.65;1.67;;;;;;;;;;5032313;28;20064;-59
2022/07/03 00:26:23;;;;;;;4.10;1.90;;;;;;;;;;5033019;28;20044;-60
2022/07/03 00:28:50;;;;;;;3.63;2.38;;;;;;;;;;5032399;28;20518;-60
2022/07/03 00:31:37;;;;;;;2.53;1.73;;;;;;;;;;5032833;28;20052;-60
2022/07/03 00:34:12;;;;;;;4.47;1.85;;;;;;;;;;5033740;28;20037;-60
2022/07/03 00:37:17;;;;;;;3.55;2.35;;;;;;;;;;5032228;28;20097;-60
2022/07/03 00:39:44;;;;;;;2.80;2.00;;;;;;;;;;5033606;28;20099;-60
2022/07/03 00:42:25;;;;;;;3.97;2.17;;;;;;;;;;5032722;28;20022;-60
2022/07/03 00:45:02;;;;;;;3.45;2.50;;;;;;;;;;5033959;28;20301;-60
2022/07/03 00:47:42;;;;;;;2.83;1.95;;;;;;;;;;5033462;28;20080;-60
2022/07/03 00:50:11;;;;;;;5.53;2.30;;;;;;;;;;5032487;28;20048;-60
2022/07/03 00:52:39;;;;;;;3.03;1.73;;;;;;;;;;5033282;28;20026;-60
2022/07/03 00:55:28;;;;;;;3.13;1.75;;;;;;;;;;5033137;28;20013;-60
2022/07/03 00:58:01;;;;;;;4.13;1.60;;;;;;;;;;5033351;28;20026;-60
2022/07/03 01:00:31;;;;;;;7.07;2.22;;;;;;;;;;5032395;28;20140;-60
2022/07/03 01:03:02;;;;;;;5.33;2.10;;;;;;;;;;5032886;28;20017;-60
2022/07/03 01:05:44;;;;;;;4.90;2.17;;;;;;;;;;5033128;28;20033;-60
2022/07/03 01:08:29;;;;;;;3.25;2.13;;;;;;;;;;5036076;28;20439;-60
2022/07/03 01:14:35;;;;;;;2.30;1.58;;;;;;;;;;5037202;28;20464;-59
2022/07/03 01:17:16;;;;;;;2.90;1.70;;;;;;;;;;5048630;28;20029;-59
2022/07/03 01:20:09;;;;;;;2.00;1.40;;;;;;;;;;5017337;28;20105;-59
2022/07/03 01:22:49;;;;;;;3.13;1.85;;;;;;;;;;5017469;28;20022;-59
2022/07/03 01:25:41;;;;;;;2.53;1.80;;;;;;;;;;5016609;28;20029;-59
2022/07/03 01:28:38;;;;;;;4.43;1.85;;;;;;;;;;5017057;28;20026;-59
2022/07/03 01:31:44;;;;;;;3.75;1.65;;;;;;;;;;5016524;28;20392;-59
2022/07/03 01:34:19;;;;;;;2.72;1.50;;;;;;;;;;4975320;28;20029;-59
2022/07/03 01:36:47;;;;;;;3.53;1.58;;;;;;;;;;4977243;28;20034;-59
2022/07/03 01:39:29;;;;;;;1.98;1.23;;;;;;;;;;5015948;28;20104;-59
2022/07/03 01:42:02;;;;;;;2.90;1.85;;;;;;;;;;5014924;28;20092;-59
2022/07/03 01:44:32;;;;;;;2.92;1.45;;;;;;;;;;5016496;28;20049;-59
2022/07/03 01:47:26;;;;;;;2.90;1.57;;;;;;;;;;5016119;28;20427;-59
2022/07/03 01:50:01;;;;;;;2.85;1.25;;;;;;;;;;5016819;28;20674;-59
2022/07/03 01:52:52;;;;;;;4.57;2.30;;;;;;;;;;5031379;28;20028;-60
2022/07/03 01:55:20;;;;;;;1.88;1.13;;;;;;;;;;5048434;28;20092;-59
2022/07/03 01:57:51;;;;;;;1.92;1.35;;;;;;;;;;5031552;28;20041;-59
2022/07/03 02:00:20;;;;;;;;;;;;;;;;;;5048806;28;20018;-59
2022/07/03 02:02:53;;;;;;;2.35;1.45;;;;;;;;;;5016725;28;19912;-59
2022/07/03 02:06:20;;;;;;;5.28;1.92;;;;;;;;;;5016681;28;20080;-59
2022/07/03 02:11:35;;;;;;;;;;;;;;;;;;4964718;28;20365;-59
2022/07/03 02:14:13;;;;;;;2.10;1.67;;;;;;;;;;5006873;28;19917;-59
2022/07/03 02:17:30;;;;;;;2.10;1.38;;;;;;;;;;5016035;28;20034;-59
2022/07/03 02:20:38;;;;;;;2.00;1.40;;;;;;;;;;5015894;28;20033;-59
2022/07/03 02:23:24;;;;;;;;;;;;;;;;;;;;;
2022/07/03 02:32:18;;;;;;;3.17;2.20;;;;;;;;;;5015819;28;20483;-59
2022/07/03 02:35:02;;;;;;;2.70;1.20;;;;;;;;;;5016548;28;20296;-59
2022/07/03 02:37:52;;;;;;;2.50;1.60;;;;;;;;;;5015870;28;20018;-59
2022/07/03 02:40:25;;;;;;;2.25;1.42;;;;;;;;;;5015242;28;20112;-59
2022/07/03 02:43:19;;;;;;;2.60;1.33;;;;;;;;;;5042162;28;20045;-59
2022/07/03 02:46:00;;;;;;;1.65;1.05;;;;;;;;;;5015863;28;20918;-59
2022/07/03 02:48:57;;;;;;;2.45;1.20;;;;;;;;;;5015722;28;20045;-59
2022/07/03 02:51:32;;;;;;;2.50;1.15;;;;;;;;;;5013927;28;20860;-59
2022/07/03 02:54:03;;;;;;;4.82;1.70;;;;;;;;;;5015673;28;20486;-59
2022/07/03 02:56:43;;;;;;;2.40;1.45;;;;;;;;;;5015575;28;20364;-59
2022/07/03 02:59:35;;;;;;;2.15;1.45;;;;;;;;;;5015658;28;20108;-59
2022/07/03 03:02:17;;;;;;;2.90;1.60;;;;;;;;;;5014797;28;20069;-59
2022/07/03 03:05:06;;;;;;;3.42;1.40;;;;;;;;;;5017103;28;20049;-59
2022/07/03 03:08:00;;;;;;;2.40;1.35;;;;;;;;;;5016173;28;20052;-59
2022/07/03 03:10:34;;;;;;;2.40;1.45;;;;;;;;;;5014738;28;20034;-59
2022/07/03 03:19:08;;;;;;;1.92;1.33;;;;;;;;;;5034950;28;20116;-59
2022/07/03 03:21:58;;;;;;;2.67;1.77;;;;;;;;;;5034316;28;20418;-59
2022/07/03 03:24:33;;;;;;;2.50;1.48;;;;;;;;;;5066386;28;20451;-59
2022/07/03 03:30:23;;;;;;;2.47;1.40;;;;;;;;;;5021823;28;20079;-59
2022/07/03 03:32:59;;;;;;;2.67;1.27;;;;;;;;;;5023817;28;20025;-59
2022/07/03 03:35:46;;;;;;;3.83;1.60;;;;;;;;;;5032640;28;20021;-59
2022/07/03 03:41:10;;;;;;;2.15;1.33;;;;;;;;;;5028214;28;20406;-59
2022/07/03 03:43:42;;;;;;;4.05;1.80;;;;;;;;;;5061626;28;20060;-59
2022/07/03 03:46:34;;;;;;;2.45;1.10;;;;;;;;;;5032064;28;20085;-59
2022/07/03 03:49:02;;;;;;;3.40;1.85;;;;;;;;;;5027430;28;20479;-59
2022/07/03 03:51:57;;;;;;;2.22;1.73;;;;;;;;;;5031168;28;20029;-59
2022/07/03 03:54:28;;;;;;;2.30;1.70;;;;;;;;;;5028416;28;20455;-59
2022/07/03 03:57:30;;;;;;;1.88;1.30;;;;;;;;;;5031361;28;20095;-59
2022/07/03 04:00:25;;;;;;;3.20;1.75;;;;;;;;;;5023221;28;20045;-59
2022/07/03 04:03:01;;;;;;;2.33;1.73;;;;;;;;;;5030963;28;20029;-59
2022/07/03 04:05:32;;;;;;;3.55;1.85;;;;;;;;;;5031827;28;20097;-59
2022/07/03 04:08:11;;;;;;;2.75;1.48;;;;;;;;;;5029560;28;20128;-59
2022/07/03 04:10:48;;;;;;;2.83;1.52;;;;;;;;;;5008012;28;20073;-59
2022/07/03 04:13:26;;;;;;;2.45;1.50;;;;;;;;;;5009492;28;20042;-59
2022/07/03 04:16:20;;;;;;;;;;;;;;;;;;;;;
2022/07/03 04:19:27;;;;;;;;;;;;;;;;;;;;;
2022/07/03 04:21:56;;;;;;;2.00;1.23;;;;;;;;;;5027817;28;20026;-59
2022/07/03 04:24:45;;;;;;;3.57;2.03;;;;;;;;;;5031756;28;20029;-59
2022/07/03 04:30:21;;;;;;;2.25;1.38;;;;;;;;;;5049201;28;20038;-59
2022/07/03 04:33:06;;;;;;;2.20;1.67;;;;;;;;;;5032129;28;20025;-59
2022/07/03 04:35:52;;;;;;;2.00;1.60;;;;;;;;;;5034622;28;20025;-59
2022/07/03 04:38:30;;;;;;;2.33;1.52;;;;;;;;;;5033387;28;20093;-59
2022/07/03 04:41:09;;;;;;;2.90;1.92;;;;;;;;;;5025488;28;20350;-59
2022/07/03 04:46:47;;;;;;;2.30;1.58;;;;;;;;;;5036342;28;20026;-59
2022/07/03 04:49:17;;;;;;;2.50;1.55;;;;;;;;;;5036112;28;20061;-59
2022/07/03 04:51:58;;;;;;;2.42;1.63;;;;;;;;;;5037109;28;20025;-59
2022/07/03 04:54:25;;;;;;;;;;;;;;;;;;5036439;28;20036;-59
2022/07/03 05:00:20;;;;;;;1.30;0.98;;;;;;;;;;5030743;28;20133;-60
2022/07/03 05:03:07;;;;;;;2.60;1.50;;;;;;;;;;5037291;28;20422;-59
2022/07/03 05:05:39;;;;;;;2.08;1.35;;;;;;;;;;5037710;28;20021;-59
2022/07/03 05:08:19;;;;;;;3.15;1.80;;;;;;;;;;5032843;28;20037;-59
2022/07/03 05:10:49;;;;;;;2.30;1.35;;;;;;;;;;5036771;28;20036;-59
2022/07/03 05:13:53;;;;;;;3.90;1.70;;;;;;;;;;5037097;28;20036;-59
2022/07/03 05:16:32;;;;;;;2.25;1.40;;;;;;;;;;5036906;28;20021;-59
2022/07/03 05:19:04;;;;;;;3.20;1.77;;;;;;;;;;5035229;28;20017;-59
2022/07/03 05:21:47;;;;;;;3.22;1.50;;;;;;;;;;5036505;28;20018;-59
2022/07/03 05:24:17;;;;;;;2.28;1.40;;;;;;;;;;5037390;28;20041;-59
2022/07/03 05:26:52;;;;;;;2.13;1.23;;;;;;;;;;5036620;28;20116;-59
2022/07/03 05:29:49;;;;;;;3.10;2.17;;;;;;;;;;5035590;28;20025;-59
2022/07/03 05:32:32;;;;;;;2.90;1.55;;;;;;;;;;5016464;28;20069;-59
2022/07/03 05:35:01;;;;;;;3.13;1.38;;;;;;;;;;5017663;28;20022;-59
2022/07/03 05:37:28;;;;;;;2.72;1.55;;;;;;;;;;5018473;28;20080;-59
2022/07/03 05:39:57;;;;;;;3.30;1.60;;;;;;;;;;5036569;28;20039;-59
2022/07/03 05:42:33;;;;;;;1.77;1.20;;;;;;;;;;5036689;28;20021;-59
2022/07/03 05:45:10;;;;;;;1.58;1.05;;;;;;;;;;5036354;28;20026;-59
2022/07/03 05:47:48;;;;;;;2.67;1.35;;;;;;;;;;5029096;28;20034;-59
2022/07/03 05:50:18;;;;;;;2.67;1.35;;;;;;;;;;5035684;28;20501;-59
2022/07/03 05:52:47;;;;;;;2.30;1.40;;;;;;;;;;5035816;28;20025;-59
2022/07/03 05:55:17;;;;;;;2.40;1.50;;;;;;;;;;5036075;28;20463;-59
2022/07/03 05:57:53;;;;;;;1.80;1.27;;;;;;;;;;5063789;28;20046;-59
2022/07/03 06:00:25;;;;;;;2.15;1.10;;;;;;;;;;5035790;28;20025;-60
2022/07/03 06:02:54;;;;;;;1.80;1.30;;;;;;;;;;5034974;28;20033;-60
2022/07/03 06:08:20;;;;;;;2.30;1.42;;;;;;;;;;5030632;28;20030;-60
2022/07/03 06:11:09;;;;;;;2.15;1.50;;;;;;;;;;5035276;28;20026;-59
2022/07/03 06:13:47;;;;;;;3.67;1.75;;;;;;;;;;5035937;28;20029;-59
2022/07/03 06:16:27;;;;;;;1.77;1.23;;;;;;;;;;5065156;28;20467;-59
2022/07/03 06:18:56;;;;;;;1.85;1.20;;;;;;;;;;5021184;28;20079;-59
2022/07/03 06:21:35;;;;;;;2.97;1.73;;;;;;;;;;5034946;28;20029;-59
2022/07/03 06:27:15;;;;;;;2.30;1.50;;;;;;;;;;5034039;28;20036;-59
2022/07/03 06:29:53;;;;;;;2.15;1.30;;;;;;;;;;5035083;28;20037;-59
2022/07/03 06:32:36;;;;;;;1.90;1.13;;;;;;;;;;5031993;28;20037;-60
2022/07/03 06:35:14;;;;;;;3.08;1.00;;;;;;;;;;5047034;28;20049;-59
2022/07/03 06:37:50;;;;;;;2.17;1.48;;;;;;;;;;5033092;28;20028;-59
2022/07/03 06:40:31;;;;;;;2.67;1.33;;;;;;;;;;5034608;28;20038;-59
2022/07/03 06:45:59;;;;;;;3.63;1.48;;;;;;;;;;5029999;28;20041;-59
2022/07/03 06:48:42;;;;;;;2.35;1.25;;;;;;;;;;5033182;28;20044;-59
2022/07/03 06:51:18;;;;;;;4.07;1.33;;;;;;;;;;5028614;28;20029;-59
2022/07/03 06:53:53;;;;;;;1.92;1.33;;;;;;;;;;5034796;28;20030;-59
2022/07/03 06:56:46;;;;;;;1.63;1.08;;;;;;;;;;5030439;28;20414;-59
2022/07/03 06:59:23;;;;;;;2.38;1.35;;;;;;;;;;5028840;28;20014;-59
2022/07/03 07:02:03;;;;;;;1.90;1.10;;;;;;;;;;5031961;28;20528;-59
2022/07/03 07:04:47;;;;;;;;;;;;;;;;;;;;;
2022/07/03 07:07:37;;;;;;;2.00;1.02;;;;;;;;;;5033364;28;20055;-60
2022/07/03 07:10:14;;;;;;;2.53;0.98;;;;;;;;;;4975465;28;20104;-59
2022/07/03 07:12:50;;;;;;;1.55;0.93;;;;;;;;;;5014916;28;20036;-60
2022/07/03 07:15:19;;;;;;;1.58;0.98;;;;;;;;;;5055381;28;20390;-60
2022/07/03 07:17:52;;;;;;;1.95;1.02;;;;;;;;;;5033522;28;20087;-60
2022/07/03 07:20:30;;;;;;;2.10;1.08;;;;;;;;;;5033123;28;20048;-59
2022/07/03 07:22:59;;;;;;;1.73;1.10;;;;;;;;;;5032400;28;20030;-60
2022/07/03 07:25:31;;;;;;;1.48;0.90;;;;;;;;;;5029562;28;20056;-60
2022/07/03 07:28:08;;;;;;;2.13;1.10;;;;;;;;;;5026163;28;20390;-60
2022/07/03 07:33:33;;;;;;;1.77;0.93;;;;;;;;;;5039633;28;20025;-60
2022/07/03 07:36:17;;;;;;;2.23;1.13;;;;;;;;;;5047374;28;20479;-60
2022/07/03 07:38:55;;;;;;;2.15;0.93;;;;;;;;;;5043145;28;20192;-60
2022/07/03 07:41:44;;;;;;;1.98;1.02;;;;;;;;;;5011853;28;20025;-60
2022/07/03 07:44:10;;;;;;;2.10;0.98;;;;;;;;;;5012625;28;20068;-60
2022/07/03 07:46:40;;;;;;;1.98;0.98;;;;;;;;;;5012250;28;20037;-60
2022/07/03 07:49:22;;;;;;;1.20;0.70;;;;;;;;;;5018027;28;20101;-60
2022/07/03 07:52:01;;;;;;;1.50;0.55;;;;;;;;;;5050194;28;20083;-60
2022/07/03 07:54:32;;;;;;;1.85;1.17;;;;;;;;;;5050472;28;20079;-60
2022/07/03 07:57:01;;;;;;;1.90;0.68;;;;;;;;;;5022978;28;20061;-60
2022/07/03 07:59:37;;;;;;;2.67;1.15;;;;;;;;;;5042947;28;20025;-60
2022/07/03 08:07:33;;;;;;;1.15;0.60;;;;;;;;;;5012244;28;20034;-60
2022/07/03 08:10:26;;;;;;;1.15;0.55;;;;;;;;;;5011439;28;20053;-60
2022/07/03 08:13:08;;;;;;;1.20;0.50;;;;;;;;;;5044733;28;20021;-60
2022/07/03 08:15:46;;;;;;;1.90;0.80;;;;;;;;;;5024081;28;20118;-60
2022/07/03 08:18:22;;;;;;;1.33;0.52;;;;;;;;;;5035602;28;20028;-60
2022/07/03 08:20:59;;;;;;;0.90;0.52;;;;;;;;;;5035150;28;20039;-60
2022/07/03 08:23:31;;;;;;;2.45;0.80;;;;;;;;;;5040939;28;20032;-60
2022/07/03 08:26:11;;;;;;;2.08;0.82;;;;;;;;;;5030581;28;20132;-60
2022/07/03 08:28:40;;;;;;;2.58;0.60;;;;;;;;;;5027667;28;20029;-60
2022/07/03 08:31:15;;;;;;;1.23;0.60;;;;;;;;;;5034653;28;20037;-60
2022/07/03 08:36:43;;;;;;;1.20;0.70;;;;;;;;;;5031650;28;20036;-60
2022/07/03 08:39:17;;;;;;;1.42;0.82;;;;;;;;;;5035414;28;20025;-60
2022/07/03 08:42:04;;;;;;;1.48;0.80;;;;;;;;;;5027071;28;20036;-60
2022/07/03 08:44:36;;;;;;;1.95;1.00;;;;;;;;;;5033358;28;20386;-60
2022/07/03 08:47:03;;;;;;;1.17;0.70;;;;;;;;;;5031664;28;20034;-60
2022/07/03 08:49:35;;;;;;;1.65;0.73;;;;;;;;;;5030951;28;20033;-60
2022/07/03 08:52:10;;;;;;;1.15;0.50;;;;;;;;;;5034516;28;20052;-60
2022/07/03 08:54:40;;;;;;;1.27;0.73;;;;;;;;;;5031551;28;20151;-60
2022/07/03 08:57:15;;;;;;;1.38;0.60;;;;;;;;;;5021978;28;20477;-60
2022/07/03 08:59:54;;;;;;;1.40;0.80;;;;;;;;;;5023988;28;20032;-60
2022/07/03 09:02:21;;;;;;;1.70;1.10;;;;;;;;;;5021196;28;20036;-60
2022/07/03 09:04:51;;;;;;;2.58;0.85;;;;;;;;;;5032222;28;20446;-60
2022/07/03 09:10:20;;;;;;;1.55;0.80;;;;;;;;;;5020930;28;20056;-59
2022/07/03 09:12:49;;;;;;;1.92;0.68;;;;;;;;;;5034920;28;20036;-60
2022/07/03 09:15:21;;;;;;;0.80;0.50;;;;;;;;;;5031888;28;20109;-60
2022/07/03 09:18:15;;;;;;;3.20;1.15;;;;;;;;;;5026064;28;20035;-60
2022/07/03 09:21:20;;;;;;;0.88;0.50;;;;;;;;;;5032145;28;20137;-60
2022/07/03 09:23:52;;;;;;;2.72;0.80;;;;;;;;;;5047692;28;20379;-60
2022/07/03 09:26:29;;;;;;;1.23;0.60;;;;;;;;;;5023941;28;20443;-60
2022/07/03 09:29:00;;;;;;;0.82;0.45;;;;;;;;;;5057253;28;20103;-60
2022/07/03 09:31:29;;;;;;;2.92;1.60;;;;;;;;;;5033790;28;20150;-60
2022/07/03 09:34:02;;;;;;;1.88;1.00;;;;;;;;;;5033259;28;20024;-60
2022/07/03 09:36:47;;;;;;;1.17;0.52;;;;;;;;;;5031931;28;20033;-60
2022/07/03 09:39:17;;;;;;;1.20;0.60;;;;;;;;;;5034039;28;20036;-60
2022/07/03 09:42:03;;;;;;;1.23;0.50;;;;;;;;;;5031586;28;20447;-60
2022/07/03 09:47:47;;;;;;;1.17;0.55;;;;;;;;;;5032457;28;20029;-60
2022/07/03 09:50:22;;;;;;;2.08;0.77;;;;;;;;;;5027727;28;20363;-60
2022/07/03 09:52:51;;;;;;;1.27;0.77;;;;;;;;;;5034264;28;20030;-60
2022/07/03 09:55:19;;;;;;;1.23;0.67;;;;;;;;;;5034068;28;20032;-60
2022/07/03 09:57:47;;;;;;;1.70;0.70;;;;;;;;;;5031839;28;20025;-60
2022/07/03 10:00:25;;;;;;;0.77;0.30;;;;;;;;;;5032988;28;20029;-60
2022/07/03 10:03:00;;;;;;;0.70;0.40;;;;;;;;;;5033808;28;20031;-60
2022/07/03 10:05:27;;;;;;;1.10;0.60;;;;;;;;;;5033721;28;20017;-60
2022/07/03 10:07:58;;;;;;;1.50;0.40;;;;;;;;;;5031603;28;20032;-60
2022/07/03 10:10:32;;;;;;;1.02;0.43;;;;;;;;;;5031773;28;20441;-60
2022/07/03 10:13:09;;;;;;;1.08;0.63;;;;;;;;;;5063823;28;20033;-60
2022/07/03 10:15:39;;;;;;;1.05;0.63;;;;;;;;;;5033784;28;20040;-60
2022/07/03 10:18:13;;;;;;;0.82;0.40;;;;;;;;;;5028651;28;20026;-60
2022/07/03 10:20:47;;;;;;;1.08;0.60;;;;;;;;;;5031756;28;20025;-60
2022/07/03 10:23:18;;;;;;;0.82;0.40;;;;;;;;;;5033408;28;20478;-60
2022/07/03 10:25:46;;;;;;;2.15;1.13;;;;;;;;;;5032693;28;20033;-60
2022/07/03 10:28:16;;;;;;;0.88;0.50;;;;;;;;;;5031607;28;20083;-60
2022/07/03 10:30:48;;;;;;;2.22;0.57;;;;;;;;;;5032758;28;20041;-60
2022/07/03 10:33:17;;;;;;;1.65;0.60;;;;;;;;;;5033282;28;20083;-60
2022/07/03 10:35:54;;;;;;;1.35;0.60;;;;;;;;;;5045562;28;20402;-60
2022/07/03 10:38:39;;;;;;;1.63;0.40;;;;;;;;;;5031844;28;20424;-60
2022/07/03 10:46:58;;;;;;;2.72;0.63;;;;;;;;;;5058616;28;20033;-60
2022/07/03 10:49:26;;;;;;;1.33;0.50;;;;;;;;;;5032911;28;20109;-60
2022/07/03 10:51:53;;;;;;;1.10;0.43;;;;;;;;;;5030745;28;20025;-60
2022/07/03 10:54:21;;;;;;;1.40;0.70;;;;;;;;;;5032617;28;20105;-60
2022/07/03 10:57:03;;;;;;;1.30;0.63;;;;;;;;;;5031861;28;20037;-60
2022/07/03 10:59:42;;;;;;;0.88;0.43;;;;;;;;;;5032613;28;20042;-60
2022/07/03 11:02:27;;;;;;;2.88;0.75;;;;;;;;;;5030942;28;20029;-60
2022/07/03 11:04:57;;;;;;;1.65;0.70;;;;;;;;;;5031462;28;20029;-60
2022/07/03 11:07:23;;;;;;;1.17;0.57;;;;;;;;;;5031536;28;20030;-60
2022/07/03 11:10:08;;;;;;;1.30;0.73;;;;;;;;;;5030423;28;20559;-60
2022/07/03 11:12:55;;;;;;;1.20;0.55;;;;;;;;;;5031381;28;20032;-60
2022/07/03 11:15:33;;;;;;;1.85;0.80;;;;;;;;;;5031794;28;20105;-60
2022/07/03 11:18:07;;;;;;;0.82;0.45;;;;;;;;;;5025213;28;20112;-60
2022/07/03 11:20:37;;;;;;;1.25;0.77;;;;;;;;;;5028644;28;20037;-60
2022/07/03 11:23:03;;;;;;;1.17;0.60;;;;;;;;;;5032244;28;20045;-60
2022/07/03 11:25:39;;;;;;;1.15;0.55;;;;;;;;;;5031186;28;20060;-60
2022/07/03 11:33:54;;;;;;;1.13;0.47;;;;;;;;;;5032388;28;20026;-60
2022/07/03 11:36:33;;;;;;;1.92;0.68;;;;;;;;;;5028009;28;20467;-60
2022/07/03 11:39:11;;;;;;;1.58;0.80;;;;;;;;;;5024965;28;20503;-60
2022/07/03 11:41:37;;;;;;;2.42;1.00;;;;;;;;;;5031251;28;20027;-60
2022/07/03 11:44:08;;;;;;;1.50;0.70;;;;;;;;;;5032183;28;20029;-60
2022/07/03 11:46:35;;;;;;;1.00;0.40;;;;;;;;;;5030903;28;20040;-60
2022/07/03 11:49:05;;;;;;;1.50;0.60;;;;;;;;;;5046959;28;20032;-60
2022/07/03 11:51:34;;;;;;;2.78;0.80;;;;;;;;;;5029434;28;20108;-60
2022/07/03 11:54:08;;;;;;;1.65;0.68;;;;;;;;;;5030742;28;20060;-60
2022/07/03 11:56:38;;;;;;;0.82;0.40;;;;;;;;;;5024881;28;20108;-60
2022/07/03 11:59:05;;;;;;;2.00;0.50;;;;;;;;;;5030464;28;20522;-60
2022/07/03 12:01:43;;;;;;;1.67;0.60;;;;;;;;;;5030988;28;20041;-61
2022/07/03 12:04:14;;;;;;;1.52;0.88;;;;;;;;;;5032223;28;20021;-60
2022/07/03 12:06:42;;;;;;;0.75;0.38;;;;;;;;;;5023542;28;20364;-60
2022/07/03 12:09:29;;;;;;;1.08;0.70;;;;;;;;;;5030495;28;20025;-60
2022/07/03 12:12:06;;;;;;;1.00;0.50;;;;;;;;;;5029643;28;20095;-60
2022/07/03 12:14:42;;;;;;;1.00;0.50;;;;;;;;;;5049761;28;20052;-60
2022/07/03 12:17:09;;;;;;;2.53;0.40;;;;;;;;;;5046587;28;20112;-61
2022/07/03 12:19:37;;;;;;;1.55;0.85;;;;;;;;;;5061285;28;20080;-61
2022/07/03 12:22:03;;;;;;;1.63;0.50;;;;;;;;;;5030999;28;20133;-61
2022/07/03 12:24:33;;;;;;;1.10;0.63;;;;;;;;;;5030796;28;20116;-60
2022/07/03 12:27:01;;;;;;;1.42;0.65;;;;;;;;;;5031815;28;20264;-60
2022/07/03 12:29:27;;;;;;;1.90;0.70;;;;;;;;;;5031580;28;20120;-60
2022/07/03 12:31:56;;;;;;;1.48;0.80;;;;;;;;;;5028815;28;20455;-60
2022/07/03 12:34:25;;;;;;;1.05;0.45;;;;;;;;;;5029575;28;20431;-61
2022/07/03 12:36:55;;;;;;;1.15;0.55;;;;;;;;;;5031331;28;20037;-60
2022/07/03 12:39:21;;;;;;;;;;;;;;;;;;5030643;28;20022;-60
2022/07/03 12:41:47;;;;;;;0.80;0.35;;;;;;;;;;5029832;28;19960;-60
2022/07/03 12:44:18;;;;;;;2.22;0.85;;;;;;;;;;5031443;28;20034;-61
2022/07/03 12:46:44;;;;;;;1.30;0.60;;;;;;;;;;5030544;28;20075;-60
2022/07/03 12:49:13;;;;;;;1.48;0.80;;;;;;;;;;5031166;28;20098;-60
2022/07/03 12:51:44;;;;;;;1.10;0.50;;;;;;;;;;5030869;28;20029;-60
2022/07/03 12:54:23;;;;;;;1.70;0.70;;;;;;;;;;5031590;28;20276;-60
2022/07/03 13:00:10;;;;;;;0.95;0.45;;;;;;;;;;5016397;28;20037;-60
2022/07/03 13:02:36;;;;;;;0.95;0.43;;;;;;;;;;5031641;28;20092;-60
2022/07/03 13:05:14;;;;;;;1.55;0.80;;;;;;;;;;5035138;28;20071;-60
2022/07/03 13:07:43;;;;;;;1.33;0.52;;;;;;;;;;5035166;28;20025;-60
2022/07/03 13:10:12;;;;;;;0.90;0.30;;;;;;;;;;5034117;28;20052;-61
2022/07/03 13:12:51;;;;;;;1.38;0.60;;;;;;;;;;5034901;28;20026;-60
2022/07/03 13:15:19;;;;;;;1.45;0.77;;;;;;;;;;5032697;28;20021;-61
2022/07/03 13:17:54;;;;;;;1.88;0.82;;;;;;;;;;5034730;28;20060;-60
2022/07/03 13:20:27;;;;;;;1.65;0.57;;;;;;;;;;5032938;28;20033;-60
2022/07/03 13:22:57;;;;;;;1.23;0.50;;;;;;;;;;5033642;28;20383;-61
2022/07/03 13:25:23;;;;;;;1.10;0.38;;;;;;;;;;5033575;28;20021;-61
2022/07/03 13:27:49;;;;;;;1.15;0.52;;;;;;;;;;5033440;28;20018;-61
2022/07/03 13:30:19;;;;;;;1.17;0.65;;;;;;;;;;5034121;28;20056;-61
2022/07/03 13:32:46;;;;;;;1.33;0.50;;;;;;;;;;5033495;28;20076;-61
2022/07/03 13:35:15;;;;;;;2.25;0.85;;;;;;;;;;5032985;28;20140;-61
2022/07/03 13:37:41;;;;;;;1.80;0.65;;;;;;;;;;5032385;28;20028;-61
2022/07/03 13:40:08;;;;;;;0.85;0.40;;;;;;;;;;5032334;28;20025;-61
2022/07/03 13:42:34;;;;;;;1.95;0.60;;;;;;;;;;5034632;28;20041;-61
2022/07/03 13:45:03;;;;;;;1.10;0.68;;;;;;;;;;5034484;28;20032;-61
2022/07/03 13:47:29;;;;;;;1.10;0.60;;;;;;;;;;5033511;28;20034;-60
2022/07/03 13:49:55;;;;;;;1.08;0.52;;;;;;;;;;5031079;28;20397;-61
2022/07/03 13:52:21;;;;;;;1.73;0.60;;;;;;;;;;5028444;28;20025;-61
2022/07/03 13:54:50;;;;;;;1.35;0.50;;;;;;;;;;5028916;28;20084;-61
2022/07/03 13:57:18;;;;;;;0.95;0.40;;;;;;;;;;5056773;28;20479;-60
2022/07/03 13:59:44;;;;;;;1.42;0.73;;;;;;;;;;5044647;28;20386;-61
2022/07/03 14:02:13;;;;;;;1.02;0.50;;;;;;;;;;5028981;28;20147;-61
2022/07/03 14:04:39;;;;;;;1.02;0.43;;;;;;;;;;5046533;28;20022;-61
2022/07/03 14:07:05;;;;;;;3.22;0.70;;;;;;;;;;5029965;28;20018;-61
2022/07/03 14:09:31;;;;;;;1.00;0.50;;;;;;;;;;5046291;28;20022;-61
2022/07/03 14:11:57;;;;;;;2.42;0.90;;;;;;;;;;5031056;28;20037;-61
2022/07/03 14:14:25;;;;;;;2.10;0.82;;;;;;;;;;5031256;28;20053;-61
2022/07/03 14:16:51;;;;;;;2.80;0.90;;;;;;;;;;5051250;28;20025;-60
2022/07/03 14:19:18;;;;;;;1.30;0.70;;;;;;;;;;5049701;28;20053;-60
2022/07/03 14:21:45;;;;;;;1.70;0.95;;;;;;;;;;5022923;28;20455;-61
2022/07/03 14:24:11;;;;;;;1.50;0.85;;;;;;;;;;5025313;28;20083;-61
2022/07/03 14:34:55;;;;;;;1.60;0.80;;;;;;;;;;5031223;28;20059;-61
2022/07/03 14:37:21;;;;;;;5.38;2.30;;;;;;;;;;5022676;28;20044;-60
2022/07/03 14:39:47;;;;;;;2.00;1.30;;;;;;;;;;5028740;28;20107;-60
2022/07/03 14:42:13;;;;;;;1.25;0.65;;;;;;;;;;5028925;28;20021;-60
2022/07/03 14:44:39;;;;;;;1.63;0.77;;;;;;;;;;5009639;28;20025;-61
2022/07/03 14:47:05;;;;;;;4.05;1.00;;;;;;;;;;5010849;28;20029;-61
2022/07/03 14:49:31;;;;;;;1.65;0.88;;;;;;;;;;5026964;28;20463;-61
2022/07/03 14:52:01;;;;;;;1.27;0.65;;;;;;;;;;5045183;28;20028;-61
2022/07/03 14:54:29;;;;;;;1.50;0.70;;;;;;;;;;5029756;28;20036;-60
2022/07/03 14:56:56;;;;;;;1.77;1.08;;;;;;;;;;5029042;28;20021;-60
2022/07/03 14:59:28;;;;;;;1.63;0.95;;;;;;;;;;5028502;28;20022;-61
2022/07/03 15:01:57;;;;;;;3.85;1.02;;;;;;;;;;5027908;28;20526;-61
2022/07/03 15:04:41;;;;;;;4.95;1.23;;;;;;;;;;5030796;28;20441;-60
2022/07/03 15:07:07;;;;;;;1.42;0.90;;;;;;;;;;5031333;28;20044;-61
2022/07/03 15:09:37;;;;;;;1.67;1.02;;;;;;;;;;5030703;28;20056;-60
2022/07/03 15:14:50;;;;;;;1.70;0.77;;;;;;;;;;5032530;28;20537;-60
2022/07/03 15:17:21;;;;;;;1.77;0.98;;;;;;;;;;5030184;28;20079;-60
2022/07/03 15:19:48;;;;;;;2.72;0.90;;;;;;;;;;5031085;28;20026;-60
2022/07/03 15:22:18;;;;;;;1.40;0.73;;;;;;;;;;5031222;28;20051;-62
2022/07/03 15:24:45;;;;;;;1.88;0.90;;;;;;;;;;5032562;28;20378;-61
2022/07/03 15:27:12;;;;;;;1.40;0.98;;;;;;;;;;5031838;28;20061;-60
2022/07/03 15:29:39;;;;;;;2.42;0.82;;;;;;;;;;5028478;28;20022;-60
2022/07/03 15:32:07;;;;;;;1.65;0.85;;;;;;;;;;5031272;28;20033;-61
2022/07/03 15:34:37;;;;;;;1.65;0.88;;;;;;;;;;5030980;28;20033;-61
2022/07/03 15:37:08;;;;;;;1.55;0.85;;;;;;;;;;5048061;28;20064;-61
2022/07/03 15:39:40;;;;;;;1.02;0.50;;;;;;;;;;5032305;28;20346;-61
2022/07/03 15:42:09;;;;;;;1.45;0.90;;;;;;;;;;5030452;28;20116;-60
2022/07/03 15:44:40;;;;;;;1.45;0.70;;;;;;;;;;5024323;28;20040;-61
2022/07/03 15:47:26;;;;;;;1.80;0.90;;;;;;;;;;5030230;28;20115;-59
2022/07/03 15:49:54;;;;;;;2.20;0.98;;;;;;;;;;5032692;28;20033;-59
2022/07/03 15:52:21;;;;;;;2.20;1.42;;;;;;;;;;5028908;28;20475;-59
2022/07/03 15:55:16;;;;;;;2.25;1.17;;;;;;;;;;5029765;28;20033;-59
2022/07/03 15:57:42;;;;;;;3.35;1.95;;;;;;;;;;5022614;28;20087;-59
2022/07/03 16:00:13;;;;;;;10.10;4.20;;;;;;;;;;5028675;28;20029;-60
2022/07/03 16:02:58;;;;;;;2.60;1.60;;;;;;;;;;5026973;28;20021;-59
2022/07/03 16:05:33;;;;;;;1.92;1.13;;;;;;;;;;5020403;28;20021;-60
2022/07/03 16:08:00;;;;;;;1.30;0.80;;;;;;;;;;5038644;28;20050;-59
2022/07/03 16:10:27;;;;;;;1.58;0.95;;;;;;;;;;5019992;28;20131;-59
2022/07/03 16:12:58;;;;;;;1.50;0.88;;;;;;;;;;5027166;28;20025;-60
2022/07/03 16:15:26;;;;;;;1.25;0.52;;;;;;;;;;5025554;28;20414;-59
2022/07/03 16:17:54;;;;;;;1.73;0.80;;;;;;;;;;5029585;28;20026;-60
2022/07/03 16:20:21;;;;;;;1.80;0.98;;;;;;;;;;5017659;28;20037;-60
2022/07/03 16:22:47;;;;;;;1.70;0.60;;;;;;;;;;5022506;28;20156;-60
2022/07/03 16:25:13;;;;;;;3.75;0.85;;;;;;;;;;5025737;28;20030;-59
2022/07/03 16:27:39;;;;;;;1.20;0.65;;;;;;;;;;5054106;28;20026;-59
2022/07/03 16:30:06;;;;;;;1.30;0.82;;;;;;;;;;5015136;28;20345;-60
2022/07/03 16:32:36;;;;;;;1.50;0.65;;;;;;;;;;5010507;28;20344;-60
2022/07/03 16:35:03;;;;;;;;;;;;;;;;;;5001269;28;20138;-60
2022/07/03 16:37:50;;;;;;;1.70;0.80;;;;;;;;;;5005350;28;19913;-60
2022/07/03 16:40:17;;;;;;;1.05;0.65;;;;;;;;;;5020322;28;20258;-60
2022/07/03 16:42:46;;;;;;;0.68;0.30;;;;;;;;;;5021426;28;20040;-59
2022/07/03 16:45:13;;;;;;;3.42;0.73;;;;;;;;;;5021426;28;20033;-59
2022/07/03 16:47:41;;;;;;;2.22;1.08;;;;;;;;;;5026655;28;20340;-60
2022/07/03 16:50:15;;;;;;;3.78;0.77;;;;;;;;;;5025983;28;20040;-59
2022/07/03 16:52:42;;;;;;;4.15;1.33;;;;;;;;;;5024490;28;20056;-60
2022/07/03 16:55:09;;;;;;;1.13;0.63;;;;;;;;;;5025222;28;20034;-60
2022/07/03 16:57:36;;;;;;;1.58;0.80;;;;;;;;;;5031181;28;20042;-59
2022/07/03 17:00:03;;;;;;;1.42;0.65;;;;;;;;;;5026901;28;20424;-60
2022/07/03 17:02:30;;;;;;;1.95;0.90;;;;;;;;;;5024332;28;20407;-60
2022/07/03 17:04:57;;;;;;;1.58;0.85;;;;;;;;;;5030969;28;20116;-60
2022/07/03 17:07:24;;;;;;;1.70;0.93;;;;;;;;;;5032083;28;20037;-59